Time;durP1;ratioP1;P1;durP2;ratioP2;P2;SDS_P1;SDS_P2;PMS_P1;PMS_P2;Temp;Humidity;BMP_temperature;BMP_pressure;BME280_temperature;BME280_humidity;BME280_pressure;Samples;Min_cycle;Max_cycle;Signal;HPM_P1;HPM_P2
2022/11/20 00:01:25;;;;;;;21.05;13.55;;;1.80;99.90;;;;;;5044486;28;20073;-78
2022/11/20 00:03:55;;;;;;;20.13;12.40;;;0.60;99.90;;;;;;5047274;28;20045;-79
2022/11/20 00:06:22;;;;;;;22.17;13.82;;;0.60;99.90;;;;;;5084419;28;20036;-81
2022/11/20 00:08:48;;;;;;;21.73;14.13;;;0.50;99.90;;;;;;5082834;28;20094;-79
2022/11/20 00:11:20;;;;;;;25.50;15.35;;;0.60;99.90;;;;;;5066675;28;20332;-77
2022/11/20 00:13:47;;;;;;;23.80;15.50;;;0.50;99.90;;;;;;5077338;28;20039;-79
2022/11/20 00:16:16;;;;;;;24.15;15.80;;;0.60;99.90;;;;;;5066249;28;20025;-79
2022/11/20 00:18:44;;;;;;;26.00;16.08;;;-1.30;99.90;;;;;;5064167;28;20033;-79
2022/11/20 00:21:24;;;;;;;25.63;15.63;;;0.60;99.90;;;;;;5063735;28;20040;-78
2022/11/20 00:23:52;;;;;;;23.48;14.45;;;1.20;99.90;;;;;;5080750;28;20040;-79
2022/11/20 00:26:19;;;;;;;22.45;13.85;;;0.60;99.90;;;;;;5052958;28;20043;-79
2022/11/20 00:29:26;;;;;;;21.02;13.15;;;3.20;99.90;;;;;;5087601;28;20043;-79
2022/11/20 00:31:52;;;;;;;20.55;12.40;;;1.20;99.90;;;;;;5078308;28;20070;-78
2022/11/20 00:34:18;;;;;;;19.65;13.07;;;1.20;99.90;;;;;;5053041;28;20315;-80
2022/11/20 00:36:43;;;;;;;19.15;11.65;;;0.40;99.90;;;;;;5033342;28;20024;-78
2022/11/20 00:39:09;;;;;;;20.35;13.45;;;0.50;99.90;;;;;;5066764;28;20032;-79
2022/11/20 00:41:59;;;;;;;18.25;12.18;;;0.90;99.90;;;;;;5049999;28;20082;-79
2022/11/20 00:44:39;;;;;;;16.80;11.50;;;2.30;99.90;;;;;;5067675;28;20215;-80
2022/11/20 00:47:05;;;;;;;20.67;12.48;;;3.30;99.90;;;;;;5059633;28;20029;-79
2022/11/20 00:49:31;;;;;;;19.85;11.55;;;0.60;99.90;;;;;;5047212;28;20051;-81
2022/11/20 00:51:56;;;;;;;20.65;12.90;;;2.50;99.90;;;;;;5065352;28;20731;-80
2022/11/20 00:54:28;;;;;;;20.85;13.48;;;0.60;99.90;;;;;;5047655;28;20033;-81
2022/11/20 00:56:54;;;;;;;20.00;11.93;;;2.90;99.90;;;;;;5063958;28;20332;-81
2022/11/20 00:59:20;;;;;;;17.73;11.25;;;3.20;99.90;;;;;;5034814;28;20036;-82
2022/11/20 01:01:46;;;;;;;16.55;10.23;;;0.60;99.90;;;;;;5083495;28;20036;-81
2022/11/20 01:04:14;;;;;;;18.63;12.40;;;2.60;99.90;;;;;;5064107;28;20040;-81
2022/11/20 01:06:46;;;;;;;15.25;10.77;;;2.80;99.90;;;;;;5075543;28;20036;-81
2022/11/20 01:09:13;;;;;;;17.75;11.23;;;2.80;99.90;;;;;;5103310;28;20234;-81
2022/11/20 01:11:46;;;;;;;19.02;11.43;;;3.00;99.90;;;;;;5086462;28;20353;-81
2022/11/20 01:14:16;;;;;;;16.15;10.50;;;3.20;99.90;;;;;;5047823;28;20029;-80
2022/11/20 01:16:50;;;;;;;19.80;13.27;;;3.10;99.90;;;;;;5050715;28;20193;-81
2022/11/20 01:19:19;;;;;;;20.70;12.07;;;2.40;99.90;;;;;;5066374;28;20116;-80
2022/11/20 01:21:48;;;;;;;18.77;11.73;;;1.80;99.90;;;;;;5066717;28;20510;-80
2022/11/20 01:24:18;;;;;;;17.55;11.32;;;0.60;99.90;;;;;;5063585;28;20070;-80
2022/11/20 01:26:51;;;;;;;22.15;12.18;;;0.70;99.90;;;;;;5059641;28;20049;-80
2022/11/20 01:29:21;;;;;;;18.83;10.55;;;3.20;99.90;;;;;;5062060;28;20090;-81
2022/11/20 01:31:47;;;;;;;15.55;10.45;;;2.90;99.90;;;;;;5047065;28;20311;-80
2022/11/20 01:34:15;;;;;;;18.77;11.80;;;0.90;99.90;;;;;;5062373;28;20192;-80
2022/11/20 01:36:42;;;;;;;19.65;12.20;;;1.90;99.90;;;;;;5058752;28;20060;-80
2022/11/20 01:39:15;;;;;;;18.23;11.32;;;1.00;99.90;;;;;;5067517;28;20024;-80
2022/11/20 01:44:48;;;;;;;14.82;9.77;;;3.10;99.90;;;;;;5074688;28;20105;-80
2022/11/20 01:47:24;;;;;;;15.10;9.88;;;1.70;99.90;;;;;;5060954;28;20087;-81
2022/11/20 01:50:22;;;;;;;16.67;10.00;;;0.70;99.90;;;;;;5085990;28;20040;-81
2022/11/20 01:52:57;;;;;;;15.00;10.88;;;0.60;99.90;;;;;;5062302;28;20260;-81
2022/11/20 01:55:30;;;;;;;;;;;0.70;99.90;;;;;;5065581;28;20218;-82
2022/11/20 01:57:59;;;;;;;19.23;10.23;;;0.60;99.90;;;;;;5079684;28;19912;-82
2022/11/20 02:00:28;;;;;;;16.27;11.18;;;0.60;99.90;;;;;;5048978;28;20323;-82
2022/11/20 02:02:58;;;;;;;16.85;10.02;;;-1.20;99.90;;;;;;5081406;28;20040;-81
2022/11/20 02:06:13;;;;;;;17.75;11.10;;;0.60;99.90;;;;;;5047759;28;20339;-81
2022/11/20 02:08:48;;;;;;;16.38;10.73;;;0.60;99.90;;;;;;5065572;28;20041;-82
2022/11/20 02:11:14;;;;;;;17.45;10.27;;;1.10;99.90;;;;;;5045963;28;20033;-81
2022/11/20 02:13:43;;;;;;;16.35;10.75;;;1.10;99.90;;;;;;5088228;28;20025;-81
2022/11/20 02:17:02;;;;;;;16.98;10.27;;;0.60;99.90;;;;;;5054414;28;20087;-81
2022/11/20 02:19:52;;;;;;;15.93;9.93;;;0.60;99.90;;;;;;5047814;28;20065;-82
2022/11/20 02:22:24;;;;;;;16.13;10.25;;;0.70;99.90;;;;;;5073926;28;20040;-84
2022/11/20 02:24:51;;;;;;;16.50;9.65;;;0.80;99.90;;;;;;5074914;28;20361;-84
2022/11/20 02:27:17;;;;;;;17.27;9.82;;;1.10;99.90;;;;;;5056086;28;20032;-82
2022/11/20 02:29:48;;;;;;;17.25;10.88;;;2.50;99.90;;;;;;5073461;28;20258;-83
2022/11/20 02:32:32;;;;;;;13.70;9.30;;;2.30;99.90;;;;;;5080729;28;20082;-84
2022/11/20 02:34:58;;;;;;;13.77;9.70;;;0.70;99.90;;;;;;5071768;28;20339;-83
2022/11/20 02:37:30;;;;;;;15.15;10.63;;;3.20;99.90;;;;;;5052954;28;20036;-84
2022/11/20 02:39:56;;;;;;;14.23;10.20;;;2.80;99.90;;;;;;5058343;28;20029;-83
2022/11/20 02:42:21;;;;;;;17.27;11.38;;;3.10;99.90;;;;;;5068264;28;20075;-84
2022/11/20 02:44:47;;;;;;;19.27;11.77;;;1.70;99.90;;;;;;5029040;28;20035;-83
2022/11/20 02:47:39;;;;;;;16.60;10.57;;;1.70;99.90;;;;;;5071687;28;20019;-82
2022/11/20 02:50:06;;;;;;;17.77;11.07;;;1.10;99.90;;;;;;5069565;28;20045;-85
2022/11/20 02:52:32;;;;;;;17.48;11.77;;;0.60;99.90;;;;;;5063598;28;20174;-83
2022/11/20 02:54:57;;;;;;;20.00;11.38;;;1.80;99.90;;;;;;5033008;28;20033;-84
2022/11/20 02:57:23;;;;;;;16.30;10.73;;;0.70;99.90;;;;;;5078529;28;20036;-85
2022/11/20 02:59:49;;;;;;;14.93;9.93;;;1.30;99.90;;;;;;5055940;28;20040;-84
2022/11/20 03:02:14;;;;;;;14.95;10.70;;;0.70;99.90;;;;;;5065553;28;20040;-83
2022/11/20 03:04:40;;;;;;;15.60;10.18;;;3.20;99.90;;;;;;5061085;28;20097;-84
2022/11/20 03:07:08;;;;;;;15.30;10.68;;;3.10;99.90;;;;;;5044887;28;20032;-83
2022/11/20 03:09:34;;;;;;;16.75;10.45;;;3.10;99.90;;;;;;5049089;28;20040;-83
2022/11/20 03:11:59;;;;;;;16.67;11.13;;;1.30;99.90;;;;;;5081979;28;20064;-82
2022/11/20 03:14:25;;;;;;;14.35;9.82;;;0.70;99.90;;;;;;5064517;28;20032;-82
2022/11/20 03:16:50;;;;;;;17.35;10.70;;;1.00;99.90;;;;;;5063452;28;20100;-83
2022/11/20 03:19:16;;;;;;;14.60;10.05;;;3.10;99.90;;;;;;5061524;28;20033;-82
2022/11/20 03:21:42;;;;;;;17.73;11.02;;;0.70;99.90;;;;;;5045742;28;20075;-82
2022/11/20 03:24:08;;;;;;;17.55;10.98;;;2.70;99.90;;;;;;5036839;28;20037;-83
2022/11/20 03:26:33;;;;;;;16.98;11.02;;;2.20;99.90;;;;;;5076497;28;20040;-83
2022/11/20 03:29:04;;;;;;;17.83;10.90;;;0.60;99.90;;;;;;5081319;28;20031;-80
2022/11/20 03:31:40;;;;;;;16.25;10.73;;;2.70;99.90;;;;;;5044694;28;20063;-80
2022/11/20 03:34:07;;;;;;;16.10;10.95;;;0.60;99.90;;;;;;5028911;28;20091;-85
2022/11/20 03:36:33;;;;;;;17.48;11.02;;;0.70;99.90;;;;;;5078365;28;20039;-81
2022/11/20 03:38:59;;;;;;;16.33;10.85;;;1.40;99.90;;;;;;5083696;28;20032;-83
2022/11/20 03:41:56;;;;;;;16.60;10.75;;;2.50;99.90;;;;;;5034924;28;20115;-80
2022/11/20 03:44:24;;;;;;;18.55;10.63;;;2.70;99.90;;;;;;5042465;28;20068;-82
2022/11/20 03:46:50;;;;;;;15.63;10.75;;;0.70;99.90;;;;;;5047328;28;20028;-82
2022/11/20 03:49:18;;;;;;;17.27;11.98;;;2.80;99.90;;;;;;5049218;28;20041;-82
2022/11/20 03:51:47;;;;;;;15.88;10.70;;;2.90;99.90;;;;;;5046090;28;20265;-81
2022/11/20 03:54:12;;;;;;;15.82;10.38;;;0.90;99.90;;;;;;5048000;28;20024;-82
2022/11/20 03:56:39;;;;;;;16.17;10.57;;;0.70;99.90;;;;;;5063834;28;20303;-84
2022/11/20 03:59:05;;;;;;;15.60;10.32;;;0.60;99.90;;;;;;5042912;28;20033;-83
2022/11/20 04:01:37;;;;;;;18.83;11.30;;;2.80;99.90;;;;;;5056317;28;20369;-82
2022/11/20 04:04:03;;;;;;;15.13;10.85;;;0.80;99.90;;;;;;5078067;28;20338;-82
2022/11/20 04:06:52;;;;;;;16.27;10.38;;;-1.30;99.90;;;;;;5039390;28;20057;-82
2022/11/20 04:09:28;;;;;;;17.33;11.32;;;0.80;99.90;;;;;;5078160;28;20036;-84
2022/11/20 04:11:54;;;;;;;16.05;11.13;;;2.30;99.90;;;;;;5053546;28;20031;-82
2022/11/20 04:14:19;;;;;;;15.57;10.93;;;2.60;99.90;;;;;;5077657;28;20100;-83
2022/11/20 04:16:45;;;;;;;15.57;10.68;;;1.00;99.90;;;;;;5071493;28;20396;-81
2022/11/20 04:19:14;;;;;;;14.93;9.65;;;1.00;99.90;;;;;;5084753;28;20066;-83
2022/11/20 04:21:40;;;;;;;15.43;10.65;;;2.20;99.90;;;;;;5069168;28;20094;-86
2022/11/20 04:24:07;;;;;;;16.45;10.25;;;1.10;99.90;;;;;;5061100;28;20215;-87
2022/11/20 04:26:46;;;;;;;14.48;9.40;;;0.70;99.90;;;;;;5059596;28;20086;-82
2022/11/20 04:29:12;;;;;;;16.35;11.35;;;2.30;99.90;;;;;;5094824;28;20056;-83
2022/11/20 04:31:38;;;;;;;16.40;9.82;;;0.70;99.90;;;;;;5088770;28;20043;-83
2022/11/20 04:34:05;;;;;;;16.92;11.10;;;2.90;99.90;;;;;;5075335;28;20257;-82
2022/11/20 04:36:32;;;;;;;17.00;10.07;;;1.30;99.90;;;;;;5081878;28;20104;-84
2022/11/20 04:39:01;;;;;;;14.30;10.02;;;0.60;99.90;;;;;;5064450;28;20203;-82
2022/11/20 04:41:30;;;;;;;14.48;10.07;;;1.70;99.90;;;;;;5072059;28;20025;-83
2022/11/20 04:44:02;;;;;;;14.18;9.20;;;3.00;99.90;;;;;;5065326;28;20207;-84
2022/11/20 04:46:37;;;;;;;16.33;10.23;;;0.70;99.90;;;;;;5062591;28;20459;-83
2022/11/20 04:49:03;;;;;;;15.23;10.15;;;-1.20;99.90;;;;;;5048392;28;20223;-85
2022/11/20 04:51:29;;;;;;;16.98;10.40;;;0.70;99.90;;;;;;5082231;28;20044;-81
2022/11/20 04:53:55;;;;;;;15.32;10.52;;;2.30;99.90;;;;;;5078620;28;20048;-82
2022/11/20 04:56:20;;;;;;;14.88;9.85;;;0.90;99.90;;;;;;5109704;28;20419;-81
2022/11/20 04:58:46;;;;;;;15.85;10.55;;;1.60;99.90;;;;;;5084348;28;20052;-87
2022/11/20 05:01:18;;;;;;;15.38;9.50;;;1.10;99.90;;;;;;5070329;28;20296;-83
2022/11/20 05:03:45;;;;;;;16.05;10.40;;;0.60;99.90;;;;;;5071144;28;20116;-86
2022/11/20 05:06:17;;;;;;;17.13;11.15;;;1.90;99.90;;;;;;5057505;28;20048;-86
2022/11/20 05:08:43;;;;;;;15.07;9.90;;;3.30;99.90;;;;;;5067029;28;20104;-84
2022/11/20 05:11:14;;;;;;;15.45;10.02;;;1.20;99.90;;;;;;5066459;28;20033;-85
2022/11/20 05:13:40;;;;;;;16.05;9.07;;;0.80;99.90;;;;;;5066510;28;20074;-84
2022/11/20 05:16:12;;;;;;;13.52;9.02;;;2.20;99.90;;;;;;5059276;28;20215;-83
2022/11/20 05:18:38;;;;;;;13.23;9.13;;;2.30;99.90;;;;;;5082776;28;20036;-86
2022/11/20 05:21:04;;;;;;;14.23;9.25;;;3.20;99.90;;;;;;5059759;28;20040;-85
2022/11/20 05:23:31;;;;;;;15.65;10.35;;;0.80;99.90;;;;;;5065901;28;20314;-84
2022/11/20 05:25:58;;;;;;;13.90;10.23;;;2.20;99.90;;;;;;5046935;28;20043;-86
2022/11/20 05:28:27;;;;;;;12.80;9.30;;;2.60;99.90;;;;;;5064236;28;20042;-86
2022/11/20 05:30:53;;;;;;;16.20;10.13;;;1.20;99.90;;;;;;5060890;28;20043;-84
2022/11/20 05:33:19;;;;;;;16.38;10.35;;;2.80;99.90;;;;;;5046756;28;20316;-83
2022/11/20 05:35:45;;;;;;;14.77;9.65;;;1.10;99.90;;;;;;5079372;28;20032;-79
2022/11/20 05:38:10;;;;;;;13.45;9.82;;;0.80;99.90;;;;;;5052699;28;20107;-84
2022/11/20 05:40:39;;;;;;;15.73;10.15;;;3.20;99.90;;;;;;5047830;28;20314;-81
2022/11/20 05:43:06;;;;;;;15.18;10.38;;;0.20;99.90;;;;;;5043693;28;20540;-82
2022/11/20 05:45:32;;;;;;;15.07;10.65;;;0.80;99.90;;;;;;5047835;28;20020;-82
2022/11/20 05:48:02;;;;;;;15.15;10.15;;;0.90;99.90;;;;;;5044343;28;20068;-82
2022/11/20 05:50:29;;;;;;;16.20;10.60;;;1.20;99.90;;;;;;5059272;28;20044;-83
2022/11/20 05:52:57;;;;;;;14.48;9.60;;;1.40;99.90;;;;;;5058655;28;20055;-82
2022/11/20 05:55:23;;;;;;;15.90;10.05;;;0.80;99.90;;;;;;5064135;28;20100;-84
2022/11/20 05:57:48;;;;;;;14.15;9.13;;;3.50;99.90;;;;;;5067406;28;20036;-83
2022/11/20 06:00:20;;;;;;;13.57;9.45;;;2.60;99.90;;;;;;5081471;28;20028;-82
2022/11/20 06:03:09;;;;;;;12.98;8.70;;;1.00;99.90;;;;;;5035938;28;20033;-86
2022/11/20 06:05:35;;;;;;;13.48;8.82;;;1.30;99.90;;;;;;5084752;28;20082;-86
2022/11/20 06:08:01;;;;;;;12.15;7.95;;;0.80;99.90;;;;;;5088719;28;20021;-84
2022/11/20 06:10:26;;;;;;;13.80;8.82;;;2.50;99.90;;;;;;5059663;28;20036;-84
2022/11/20 06:12:52;;;;;;;13.05;8.40;;;2.70;99.90;;;;;;5044320;28;20096;-80
2022/11/20 06:15:20;;;;;;;13.75;9.38;;;1.20;99.90;;;;;;5068992;28;20361;-84
2022/11/20 06:17:46;;;;;;;12.50;8.38;;;1.60;99.90;;;;;;5062360;28;20103;-85
2022/11/20 06:20:21;;;;;;;12.25;8.23;;;1.10;99.90;;;;;;5066760;28;20031;-83
2022/11/20 06:22:47;;;;;;;12.95;8.30;;;0.10;99.90;;;;;;5055768;28;20212;-86
2022/11/20 06:25:13;;;;;;;13.80;8.18;;;0.70;99.90;;;;;;5065964;28;20106;-84
2022/11/20 06:27:39;;;;;;;14.10;9.70;;;1.00;99.90;;;;;;5095356;28;20092;-85
2022/11/20 06:30:05;;;;;;;12.55;8.48;;;2.80;99.90;;;;;;5047051;28;20035;-83
2022/11/20 06:32:32;;;;;;;16.73;9.77;;;0.70;99.90;;;;;;5051819;28;20036;-84
2022/11/20 06:34:58;;;;;;;13.52;9.55;;;0.10;99.90;;;;;;5103054;28;20031;-83
2022/11/20 06:37:24;;;;;;;13.50;9.35;;;;;;;;;;5072072;28;20033;-83
2022/11/20 06:39:49;;;;;;;12.90;8.43;;;0.80;99.90;;;;;;5082539;28;20100;-85
2022/11/20 06:42:15;;;;;;;13.95;9.38;;;2.30;99.90;;;;;;5075895;28;20043;-82
2022/11/20 06:44:44;;;;;;;13.95;9.35;;;0.70;99.90;;;;;;5047699;28;20072;-82
2022/11/20 06:47:10;;;;;;;12.55;9.07;;;1.70;99.90;;;;;;5064497;28;20029;-84
2022/11/20 06:49:36;;;;;;;13.52;9.18;;;3.00;99.90;;;;;;5070068;28;20048;-84
2022/11/20 06:52:03;;;;;;;17.42;9.73;;;1.80;99.90;;;;;;5082352;28;20078;-80
2022/11/20 06:54:28;;;;;;;12.85;8.82;;;0.70;99.90;;;;;;5080253;28;20041;-80
2022/11/20 06:56:54;;;;;;;14.55;9.65;;;3.50;99.90;;;;;;5078771;28;20286;-80
2022/11/20 06:59:20;;;;;;;15.30;9.73;;;0.90;99.90;;;;;;5046404;28;20028;-81
2022/11/20 07:01:45;;;;;;;15.90;10.07;;;2.90;99.90;;;;;;5059793;28;20279;-82
2022/11/20 07:04:13;;;;;;;13.00;8.93;;;2.80;99.90;;;;;;5054762;28;20039;-80
2022/11/20 07:06:39;;;;;;;15.95;10.80;;;0.80;99.90;;;;;;5028836;28;20029;-79
2022/11/20 07:09:05;;;;;;;13.32;9.15;;;1.30;99.90;;;;;;5044992;28;20276;-82
2022/11/20 07:11:31;;;;;;;14.10;9.43;;;;;;;;;;5077428;28;20096;-79
2022/11/20 07:13:57;;;;;;;13.13;9.35;;;0.90;99.90;;;;;;5060964;28;20028;-81
2022/11/20 07:16:22;;;;;;;14.00;10.13;;;1.20;99.90;;;;;;5064312;28;20210;-80
2022/11/20 07:18:48;;;;;;;14.80;8.98;;;0.90;99.90;;;;;;5081374;28;20074;-79
2022/11/20 07:21:14;;;;;;;13.73;10.05;;;3.30;99.90;;;;;;5047829;28;20096;-80
2022/11/20 07:23:40;;;;;;;13.60;8.77;;;1.10;99.90;;;;;;5064258;28;20039;-80
2022/11/20 07:26:08;;;;;;;13.40;8.90;;;1.10;99.90;;;;;;5063568;28;20116;-81
2022/11/20 07:28:34;;;;;;;14.15;8.60;;;1.20;99.90;;;;;;5082891;28;20313;-82
2022/11/20 07:31:26;;;;;;;12.13;8.38;;;3.60;99.90;;;;;;5065333;28;20310;-81
2022/11/20 07:33:52;;;;;;;17.65;10.93;;;1.10;99.90;;;;;;5064482;28;20094;-80
2022/11/20 07:36:18;;;;;;;13.73;9.20;;;1.60;99.90;;;;;;5044869;28;20091;-79
2022/11/20 07:38:44;;;;;;;18.33;10.07;;;0.90;99.90;;;;;;5077708;28;20369;-81
2022/11/20 07:41:09;;;;;;;16.40;10.65;;;3.50;99.90;;;;;;5052495;28;20028;-79
2022/11/20 07:43:35;;;;;;;15.60;9.95;;;1.20;99.90;;;;;;5030777;28;20444;-79
2022/11/20 07:46:01;;;;;;;14.90;9.57;;;3.40;99.90;;;;;;5042117;28;20064;-78
2022/11/20 07:48:26;;;;;;;16.20;9.80;;;1.10;99.90;;;;;;5039013;28;20040;-77
2022/11/20 07:50:56;;;;;;;15.52;10.23;;;1.30;99.90;;;;;;5043158;28;20078;-79
2022/11/20 07:53:23;;;;;;;14.23;9.00;;;3.20;99.90;;;;;;5043558;28;20044;-81
2022/11/20 07:55:52;;;;;;;13.63;8.73;;;-0.80;99.90;;;;;;5048289;28;20123;-81
2022/11/20 07:58:19;;;;;;;14.50;9.10;;;1.40;99.90;;;;;;5043605;28;20037;-79
2022/11/20 08:00:45;;;;;;;13.40;8.70;;;1.10;99.90;;;;;;5043180;28;20053;-77
2022/11/20 08:03:11;;;;;;;11.43;8.50;;;3.40;99.90;;;;;;5092085;28;20028;-80
2022/11/20 08:05:37;;;;;;;12.95;8.13;;;2.60;99.90;;;;;;5064597;28;20043;-79
2022/11/20 08:08:04;;;;;;;13.23;8.27;;;1.10;99.90;;;;;;5024914;28;20025;-80
2022/11/20 08:10:30;;;;;;;11.82;8.05;;;2.40;99.90;;;;;;5052833;28;20024;-81
2022/11/20 08:15:40;;;;;;;11.65;8.30;;;1.10;99.90;;;;;;5064760;28;20071;-80
2022/11/20 08:18:11;;;;;;;10.95;8.30;;;1.10;99.90;;;;;;5053208;28;20040;-82
2022/11/20 08:20:37;;;;;;;10.90;7.75;;;1.00;99.90;;;;;;5052084;28;20032;-81
2022/11/20 08:23:06;;;;;;;12.52;7.88;;;2.90;99.90;;;;;;5027604;28;20274;-80
2022/11/20 08:25:33;;;;;;;12.15;8.02;;;0.90;99.90;;;;;;5056097;28;20093;-79
2022/11/20 08:28:00;;;;;;;13.77;9.10;;;3.60;99.90;;;;;;5036326;28;20048;-82
2022/11/20 08:30:29;;;;;;;11.82;8.57;;;3.40;99.90;;;;;;5055512;28;20071;-82
2022/11/20 08:33:00;;;;;;;13.13;9.25;;;1.20;99.90;;;;;;5058423;28;20041;-80
2022/11/20 08:35:26;;;;;;;12.35;8.25;;;1.30;99.90;;;;;;5069496;28;20060;-79
2022/11/20 08:37:52;;;;;;;13.05;10.10;;;1.30;99.90;;;;;;5063838;28;20029;-83
2022/11/20 08:40:17;;;;;;;13.43;9.75;;;1.30;99.90;;;;;;5075854;28;20047;-80
2022/11/20 08:42:50;;;;;;;15.15;9.23;;;1.40;99.90;;;;;;5055294;28;20029;-83
2022/11/20 08:45:17;;;;;;;13.65;9.60;;;1.40;99.90;;;;;;5063733;28;20031;-79
2022/11/20 08:47:44;;;;;;;17.70;10.90;;;1.40;99.90;;;;;;5045758;28;20064;-80
2022/11/20 08:50:14;;;;;;;17.17;10.75;;;1.80;99.90;;;;;;5063369;28;20139;-81
2022/11/20 08:52:43;;;;;;;12.27;9.10;;;1.50;99.90;;;;;;5051942;28;20036;-77
2022/11/20 08:55:09;;;;;;;18.08;11.18;;;2.00;99.90;;;;;;5082850;28;20025;-83
2022/11/20 08:57:36;;;;;;;14.52;9.43;;;1.50;99.90;;;;;;5061032;28;20106;-80
2022/11/20 09:00:04;;;;;;;14.77;9.98;;;1.60;99.90;;;;;;5053797;28;20035;-82
2022/11/20 09:02:30;;;;;;;12.90;9.05;;;1.70;99.90;;;;;;5056445;28;20100;-82
2022/11/20 09:04:56;;;;;;;14.10;9.38;;;2.90;99.90;;;;;;5077456;28;20039;-82
2022/11/20 09:07:22;;;;;;;14.05;9.25;;;1.70;99.90;;;;;;5069434;28;20064;-79
2022/11/20 09:09:48;;;;;;;16.63;8.52;;;2.00;99.90;;;;;;5038664;28;20029;-83
2022/11/20 09:12:13;;;;;;;15.25;9.38;;;3.50;99.90;;;;;;5067307;28;20394;-83
2022/11/20 09:14:47;;;;;;;14.98;9.40;;;1.70;99.90;;;;;;5030876;28;20025;-83
2022/11/20 09:17:14;;;;;;;16.55;9.88;;;1.60;99.90;;;;;;5078011;28;20028;-79
2022/11/20 09:19:40;;;;;;;12.35;8.80;;;3.50;99.90;;;;;;5045329;28;20029;-80
2022/11/20 09:22:07;;;;;;;13.05;9.38;;;1.70;99.90;;;;;;5039754;28;20025;-81
2022/11/20 09:24:42;;;;;;;15.57;9.35;;;1.70;99.90;;;;;;5056946;28;20037;-81
2022/11/20 09:27:09;;;;;;;14.63;9.30;;;1.50;99.90;;;;;;5027450;28;20048;-78
2022/11/20 09:29:34;;;;;;;13.15;9.88;;;1.80;99.90;;;;;;5048976;28;20054;-78
2022/11/20 09:32:00;;;;;;;13.68;9.00;;;4.10;99.90;;;;;;5067581;28;20028;-81
2022/11/20 09:34:26;;;;;;;12.90;9.02;;;4.00;99.90;;;;;;5086796;28;20032;-79
2022/11/20 09:36:51;;;;;;;14.30;9.65;;;4.20;99.90;;;;;;5031530;28;20039;-80
2022/11/20 09:39:20;;;;;;;14.30;9.50;;;1.90;99.90;;;;;;5042372;28;20028;-79
2022/11/20 09:42:02;;;;;;;13.32;9.52;;;1.80;99.90;;;;;;5034832;28;20132;-78
2022/11/20 09:44:38;;;;;;;13.43;9.50;;;4.30;99.90;;;;;;5082694;28;20040;-80
2022/11/20 09:47:30;;;;;;;13.45;8.57;;;1.90;99.90;;;;;;5097296;28;20033;-78
2022/11/20 09:49:56;;;;;;;11.73;8.43;;;1.90;99.90;;;;;;5082549;28;20053;-81
2022/11/20 09:52:50;;;;;;;15.00;9.90;;;3.40;99.90;;;;;;5057225;28;20063;-78
2022/11/20 09:55:16;;;;;;;13.82;9.82;;;1.90;99.90;;;;;;5075391;28;20055;-83
2022/11/20 10:00:35;;;;;;;13.50;8.20;;;1.90;99.90;;;;;;5056648;28;20064;-78
2022/11/20 10:03:23;;;;;;;13.82;8.68;;;3.50;99.90;;;;;;5067113;28;20033;-80
2022/11/20 10:05:54;;;;;;;13.55;9.32;;;2.00;99.90;;;;;;5063949;28;20127;-82
2022/11/20 10:08:21;;;;;;;13.43;10.02;;;3.60;99.90;;;;;;5061232;28;20082;-79
2022/11/20 10:11:00;;;;;;;13.85;8.80;;;3.30;99.90;;;;;;5055399;28;20033;-81
2022/11/20 10:13:47;;;;;;;12.30;8.30;;;2.00;99.90;;;;;;5069695;28;20106;-79
2022/11/20 10:16:19;;;;;;;12.75;9.82;;;2.00;99.90;;;;;;5070232;28;20047;-81
2022/11/20 10:19:00;;;;;;;12.10;8.18;;;2.00;99.90;;;;;;5066734;28;20041;-78
2022/11/20 10:21:33;;;;;;;14.05;8.80;;;2.10;99.90;;;;;;5045961;28;20082;-81
2022/11/20 10:24:05;;;;;;;12.27;9.13;;;2.00;99.90;;;;;;5062456;28;20043;-80
2022/11/20 10:26:48;;;;;;;13.32;8.48;;;4.00;99.90;;;;;;5048095;28;20211;-80
2022/11/20 10:29:21;;;;;;;14.75;8.30;;;2.10;99.90;;;;;;5051834;28;20052;-80
2022/11/20 10:31:56;;;;;;;12.85;8.88;;;2.00;99.90;;;;;;5050529;28;20055;-81
2022/11/20 10:34:43;;;;;;;11.57;8.02;;;3.90;99.90;;;;;;5061305;28;20331;-80
2022/11/20 10:37:15;;;;;;;11.10;8.13;;;2.00;99.90;;;;;;5064589;28;20109;-78
2022/11/20 10:39:49;;;;;;;12.70;8.48;;;2.10;99.90;;;;;;5057152;28;20201;-80
2022/11/20 10:42:25;;;;;;;11.27;7.93;;;2.20;99.90;;;;;;5051460;28;20043;-80
2022/11/20 10:45:01;;;;;;;10.65;7.30;;;2.20;99.90;;;;;;5070911;28;20361;-81
2022/11/20 10:47:29;;;;;;;11.75;7.78;;;2.20;99.90;;;;;;5069543;28;20390;-78
2022/11/20 10:50:37;;;;;;;15.13;9.02;;;2.30;99.90;;;;;;5071508;28;20212;-79
2022/11/20 10:53:22;;;;;;;10.98;8.23;;;2.20;99.90;;;;;;5036502;28;20036;-78
2022/11/20 10:56:00;;;;;;;41.00;21.38;;;3.30;99.90;;;;;;5054201;28;20037;-80
2022/11/20 10:58:52;;;;;;;13.20;9.38;;;2.50;99.90;;;;;;5047953;28;20199;-81
2022/11/20 11:01:23;;;;;;;12.02;8.57;;;2.70;99.90;;;;;;5059282;28;20078;-77
2022/11/20 11:03:52;;;;;;;11.60;8.35;;;4.30;99.90;;;;;;5051467;28;20040;-79
2022/11/20 11:06:36;;;;;;;11.10;7.88;;;2.90;99.90;;;;;;5065996;28;20064;-82
2022/11/20 11:09:31;;;;;;;11.93;7.47;;;2.60;99.90;;;;;;5058174;28;20045;-79
2022/11/20 11:11:57;;;;;;;11.05;7.55;;;3.30;99.90;;;;;;5061991;28;20070;-79
2022/11/20 11:14:24;;;;;;;10.10;7.32;;;2.70;99.90;;;;;;5079688;28;20249;-81
2022/11/20 11:16:54;;;;;;;9.98;8.00;;;2.70;99.90;;;;;;5049852;28;20033;-78
2022/11/20 11:19:20;;;;;;;11.20;8.00;;;3.40;99.90;;;;;;5094499;28;20028;-79
2022/11/20 11:21:54;;;;;;;12.70;7.65;;;3.20;99.90;;;;;;5044993;28;20205;-79
2022/11/20 11:24:22;;;;;;;14.50;10.45;;;2.90;99.90;;;;;;5078985;28;20055;-79
2022/11/20 11:27:03;;;;;;;10.75;7.57;;;3.00;99.90;;;;;;5048240;28;20393;-83
2022/11/20 11:29:30;;;;;;;11.30;7.50;;;2.90;99.90;;;;;;5061260;28;20032;-80
2022/11/20 11:32:11;;;;;;;10.32;6.45;;;3.00;99.90;;;;;;5058945;28;20029;-81
2022/11/20 11:34:37;;;;;;;11.15;7.55;;;3.30;99.90;;;;;;5055767;28;20031;-83
2022/11/20 11:37:04;;;;;;;9.13;6.85;;;2.80;99.90;;;;;;5058616;28;20095;-78
2022/11/20 11:39:32;;;;;;;10.23;7.03;;;2.70;99.90;;;;;;5041070;28;20223;-78
2022/11/20 11:42:00;;;;;;;9.43;6.43;;;3.70;99.90;;;;;;5045634;28;20085;-82
2022/11/20 11:47:43;;;;;;;8.75;5.65;;;2.80;99.90;;;;;;5060685;28;20330;-82
2022/11/20 11:50:16;;;;;;;9.60;6.45;;;2.70;99.90;;;;;;5057864;28;20052;-81
2022/11/20 11:53:06;;;;;;;10.63;7.07;;;2.70;99.90;;;;;;5069102;28;20041;-80
2022/11/20 11:55:31;;;;;;;8.88;6.63;;;3.30;99.90;;;;;;5070320;28;20043;-81
2022/11/20 11:58:14;;;;;;;10.15;7.43;;;2.80;99.90;;;;;;5051872;28;20029;-82
2022/11/20 12:00:47;;;;;;;9.18;6.43;;;2.80;99.90;;;;;;5060930;28;20036;-79
2022/11/20 12:03:21;;;;;;;9.90;6.85;;;2.80;99.90;;;;;;5071553;28;20021;-77
2022/11/20 12:05:57;;;;;;;10.60;7.05;;;2.90;99.90;;;;;;5063769;28;20254;-79
2022/11/20 12:08:39;;;;;;;8.57;6.05;;;4.70;99.90;;;;;;5085187;28;20029;-79
2022/11/20 12:11:11;;;;;;;10.75;7.13;;;2.90;99.90;;;;;;5080048;28;20059;-78
2022/11/20 12:13:42;;;;;;;9.27;7.18;;;2.80;99.90;;;;;;5075534;28;20215;-81
2022/11/20 12:16:14;;;;;;;11.82;7.32;;;2.80;99.90;;;;;;5052927;28;20029;-79
2022/11/20 12:18:41;;;;;;;12.00;7.10;;;2.90;99.90;;;;;;5069849;28;20032;-80
2022/11/20 12:21:16;;;;;;;10.57;6.90;;;2.90;99.90;;;;;;5070225;28;20041;-81
2022/11/20 12:24:06;;;;;;;9.57;7.28;;;2.90;99.90;;;;;;5052732;28;20083;-82
2022/11/20 12:26:53;;;;;;;10.05;6.65;;;3.00;99.90;;;;;;5048943;28;20227;-80
2022/11/20 12:29:42;;;;;;;8.90;6.18;;;3.00;99.90;;;;;;5060128;28;20035;-82
2022/11/20 12:32:46;;;;;;;8.65;6.18;;;3.00;99.90;;;;;;5085544;28;20032;-82
2022/11/20 12:35:20;;;;;;;8.85;6.20;;;3.10;99.90;;;;;;5061623;28;20041;-76
2022/11/20 12:38:12;;;;;;;9.77;6.88;;;3.20;99.90;;;;;;5062297;28;20341;-83
2022/11/20 12:40:56;;;;;;;17.88;6.50;;;3.50;99.90;;;;;;5096549;28;20135;-77
2022/11/20 12:46:22;;;;;;;6.55;5.10;;;3.90;99.90;;;;;;5062268;28;20048;-81
2022/11/20 12:49:12;;;;;;;7.18;4.65;;;3.50;99.90;;;;;;5059106;28;20404;-81
2022/11/20 12:51:58;;;;;;;4.90;4.03;;;3.50;99.90;;;;;;5069773;28;20047;-79
2022/11/20 12:54:58;;;;;;;;;;;;;;;;;;;;;
2022/11/20 12:57:44;;;;;;;8.52;3.83;;;3.50;99.90;;;;;;5063474;28;20223;-78
2022/11/20 13:00:13;;;;;;;7.25;5.03;;;3.60;99.90;;;;;;5053825;28;20033;-80
2022/11/20 13:02:39;;;;;;;4.97;3.78;;;3.60;99.90;;;;;;5060140;28;20078;-81
2022/11/20 13:05:05;;;;;;;5.25;3.85;;;3.70;99.90;;;;;;5062513;28;20040;-81
2022/11/20 13:07:32;;;;;;;5.05;3.78;;;3.60;99.90;;;;;;5060077;28;20028;-80
2022/11/20 13:10:00;;;;;;;6.03;3.60;;;4.30;99.90;;;;;;5056746;28;20021;-76
2022/11/20 13:12:40;;;;;;;5.43;3.63;;;3.50;99.90;;;;;;5059581;28;20090;-79
2022/11/20 13:15:58;;;;;;;4.88;3.67;;;3.40;99.90;;;;;;5065784;28;20021;-82
2022/11/20 13:18:24;;;;;;;5.53;3.38;;;3.40;99.90;;;;;;5053750;28;20056;-79
2022/11/20 13:20:51;;;;;;;5.63;4.20;;;3.70;99.90;;;;;;5072210;28;20218;-84